sensor_id;sensor_type;location;lat;lon;timestamp;temperature;humidity
26063;DHT22;13837;48.562;12.108;2022-09-09T00:00:25;11.70;99.90
26063;DHT22;13837;48.562;12.108;2022-09-09T00:03:12;11.70;99.90
26063;DHT22;13837;48.562;12.108;2022-09-09T00:06:05;11.80;99.90
26063;DHT22;13837;48.562;12.108;2022-09-09T00:08:53;12.00;99.90
26063;DHT22;13837;48.562;12.108;2022-09-09T00:11:29;12.00;99.90
26063;DHT22;13837;48.562;12.108;2022-09-09T00:14:00;12.10;99.90
26063;DHT22;13837;48.562;12.108;2022-09-09T00:16:32;12.00;99.90
26063;DHT22;13837;48.562;12.108;2022-09-09T00:19:22;12.10;99.90
26063;DHT22;13837;48.562;12.108;2022-09-09T00:24:45;11.60;99.90
26063;DHT22;13837;48.562;12.108;2022-09-09T00:32:39;11.40;99.90
26063;DHT22;13837;48.562;12.108;2022-09-09T00:37:38;11.30;99.90
26063;DHT22;13837;48.562;12.108;2022-09-09T00:40:22;11.20;99.90
26063;DHT22;13837;48.562;12.108;2022-09-09T00:42:52;11.20;99.90
26063;DHT22;13837;48.562;12.108;2022-09-09T00:45:35;11.10;99.90
26063;DHT22;13837;48.562;12.108;2022-09-09T00:48:10;11.10;99.90
26063;DHT22;13837;48.562;12.108;2022-09-09T00:50:56;11.20;99.90
26063;DHT22;13837;48.562;12.108;2022-09-09T00:53:56;11.10;99.90
26063;DHT22;13837;48.562;12.108;2022-09-09T00:56:38;11.10;99.90
26063;DHT22;13837;48.562;12.108;2022-09-09T01:01:55;11.30;99.90
26063;DHT22;13837;48.562;12.108;2022-09-09T01:04:29;11.20;99.90
26063;DHT22;13837;48.562;12.108;2022-09-09T01:07:17;11.10;99.90
26063;DHT22;13837;48.562;12.108;2022-09-09T01:10:58;11.20;99.90
26063;DHT22;13837;48.562;12.108;2022-09-09T01:13:02;11.30;99.90
26063;DHT22;13837;48.562;12.108;2022-09-09T01:15:32;11.30;99.90
26063;DHT22;13837;48.562;12.108;2022-09-09T01:18:04;11.40;99.90
26063;DHT22;13837;48.562;12.108;2022-09-09T01:23:34;11.40;99.90
26063;DHT22;13837;48.562;12.108;2022-09-09T01:26:37;11.50;99.90
26063;DHT22;13837;48.562;12.108;2022-09-09T01:29:14;11.40;99.90
26063;DHT22;13837;48.562;12.108;2022-09-09T01:31:54;11.40;99.90
26063;DHT22;13837;48.562;12.108;2022-09-09T01:34:22;11.50;99.90
26063;DHT22;13837;48.562;12.108;2022-09-09T01:39:20;11.40;99.90
26063;DHT22;13837;48.562;12.108;2022-09-09T01:41:54;11.20;99.90
26063;DHT22;13837;48.562;12.108;2022-09-09T01:44:21;11.10;99.90
26063;DHT22;13837;48.562;12.108;2022-09-09T01:46:48;11.00;99.90
26063;DHT22;13837;48.562;12.108;2022-09-09T01:49:19;10.90;99.90
26063;DHT22;13837;48.562;12.108;2022-09-09T01:51:48;10.70;99.90
26063;DHT22;13837;48.562;12.108;2022-09-09T01:54:15;10.70;99.90
26063;DHT22;13837;48.562;12.108;2022-09-09T02:02:11;10.70;99.90
26063;DHT22;13837;48.562;12.108;2022-09-09T02:04:44;10.70;99.90
26063;DHT22;13837;48.562;12.108;2022-09-09T02:09:51;10.80;99.90
26063;DHT22;13837;48.562;12.108;2022-09-09T02:12:24;10.90;99.90
26063;DHT22;13837;48.562;12.108;2022-09-09T02:15:10;10.90;99.90
26063;DHT22;13837;48.562;12.108;2022-09-09T02:17:49;11.10;99.90
26063;DHT22;13837;48.562;12.108;2022-09-09T02:20:18;11.20;99.90
26063;DHT22;13837;48.562;12.108;2022-09-09T02:22:55;11.20;99.90
26063;DHT22;13837;48.562;12.108;2022-09-09T02:25:25;11.30;99.90
26063;DHT22;13837;48.562;12.108;2022-09-09T02:27:55;11.30;99.90
26063;DHT22;13837;48.562;12.108;2022-09-09T02:30:23;11.40;99.90
26063;DHT22;13837;48.562;12.108;2022-09-09T02:32:54;11.40;99.90
26063;DHT22;13837;48.562;12.108;2022-09-09T02:35:42;11.40;99.90
26063;DHT22;13837;48.562;12.108;2022-09-09T02:38:12;11.30;99.90
26063;DHT22;13837;48.562;12.108;2022-09-09T02:40:42;11.30;99.90
26063;DHT22;13837;48.562;12.108;2022-09-09T02:43:08;11.20;99.90
26063;DHT22;13837;48.562;12.108;2022-09-09T02:45:48;11.10;99.90
26063;DHT22;13837;48.562;12.108;2022-09-09T02:56:49;11.10;99.90
26063;DHT22;13837;48.562;12.108;2022-09-09T02:59:18;11.00;99.90
26063;DHT22;13837;48.562;12.108;2022-09-09T03:01:44;11.20;99.90
26063;DHT22;13837;48.562;12.108;2022-09-09T03:04:10;11.20;99.90
26063;DHT22;13837;48.562;12.108;2022-09-09T03:06:36;11.20;99.90
26063;DHT22;13837;48.562;12.108;2022-09-09T03:09:13;11.20;99.90
26063;DHT22;13837;48.562;12.108;2022-09-09T03:11:39;11.20;99.90
26063;DHT22;13837;48.562;12.108;2022-09-09T03:14:05;11.30;99.90
26063;DHT22;13837;48.562;12.108;2022-09-09T03:16:31;11.20;99.90
26063;DHT22;13837;48.562;12.108;2022-09-09T03:19:00;11.20;99.90
26063;DHT22;13837;48.562;12.108;2022-09-09T03:21:27;11.10;99.90
26063;DHT22;13837;48.562;12.108;2022-09-09T03:23:53;11.10;99.90
26063;DHT22;13837;48.562;12.108;2022-09-09T03:26:19;11.20;99.90
26063;DHT22;13837;48.562;12.108;2022-09-09T03:28:46;11.30;99.90
26063;DHT22;13837;48.562;12.108;2022-09-09T03:31:15;11.30;99.90
26063;DHT22;13837;48.562;12.108;2022-09-09T03:33:42;11.20;99.90
26063;DHT22;13837;48.562;12.108;2022-09-09T03:36:10;11.30;99.90
26063;DHT22;13837;48.562;12.108;2022-09-09T03:38:36;11.20;99.90
26063;DHT22;13837;48.562;12.108;2022-09-09T03:41:03;11.30;99.90
26063;DHT22;13837;48.562;12.108;2022-09-09T03:43:31;11.30;99.90
26063;DHT22;13837;48.562;12.108;2022-09-09T03:45:58;11.40;99.90
26063;DHT22;13837;48.562;12.108;2022-09-09T03:48:25;11.40;99.90
26063;DHT22;13837;48.562;12.108;2022-09-09T03:50:54;11.40;99.90
26063;DHT22;13837;48.562;12.108;2022-09-09T03:53:23;11.40;99.90
26063;DHT22;13837;48.562;12.108;2022-09-09T03:55:52;11.40;99.90
26063;DHT22;13837;48.562;12.108;2022-09-09T03:58:22;11.30;99.90
26063;DHT22;13837;48.562;12.108;2022-09-09T04:01:04;11.40;99.90
26063;DHT22;13837;48.562;12.108;2022-09-09T04:03:30;11.30;99.90
26063;DHT22;13837;48.562;12.108;2022-09-09T04:05:58;11.40;99.90
26063;DHT22;13837;48.562;12.108;2022-09-09T04:08:26;11.40;99.90
26063;DHT22;13837;48.562;12.108;2022-09-09T04:10:53;11.30;99.90
26063;DHT22;13837;48.562;12.108;2022-09-09T04:13:23;11.20;99.90
26063;DHT22;13837;48.562;12.108;2022-09-09T04:15:57;11.30;99.90
26063;DHT22;13837;48.562;12.108;2022-09-09T04:18:24;11.20;99.90
26063;DHT22;13837;48.562;12.108;2022-09-09T04:20:51;11.20;99.90
26063;DHT22;13837;48.562;12.108;2022-09-09T04:23:20;11.20;99.90
26063;DHT22;13837;48.562;12.108;2022-09-09T04:25:48;11.20;99.90
26063;DHT22;13837;48.562;12.108;2022-09-09T04:28:15;11.20;99.90
26063;DHT22;13837;48.562;12.108;2022-09-09T04:30:42;11.20;99.90
26063;DHT22;13837;48.562;12.108;2022-09-09T04:33:09;11.20;99.90
26063;DHT22;13837;48.562;12.108;2022-09-09T04:35:36;11.20;99.90
26063;DHT22;13837;48.562;12.108;2022-09-09T04:38:02;11.20;99.90
26063;DHT22;13837;48.562;12.108;2022-09-09T04:40:31;11.10;99.90
26063;DHT22;13837;48.562;12.108;2022-09-09T04:43:01;11.10;99.90
26063;DHT22;13837;48.562;12.108;2022-09-09T04:45:29;11.10;99.90
26063;DHT22;13837;48.562;12.108;2022-09-09T04:47:55;11.10;99.90
26063;DHT22;13837;48.562;12.108;2022-09-09T04:50:21;11.10;99.90
26063;DHT22;13837;48.562;12.108;2022-09-09T04:52:47;11.10;99.90
26063;DHT22;13837;48.562;12.108;2022-09-09T04:55:14;11.10;99.90
26063;DHT22;13837;48.562;12.108;2022-09-09T04:57:43;11.00;99.90
26063;DHT22;13837;48.562;12.108;2022-09-09T05:00:11;11.00;99.90
26063;DHT22;13837;48.562;12.108;2022-09-09T05:02:40;11.10;99.90
26063;DHT22;13837;48.562;12.108;2022-09-09T05:05:07;10.90;99.90
26063;DHT22;13837;48.562;12.108;2022-09-09T05:07:34;10.90;99.90
26063;DHT22;13837;48.562;12.108;2022-09-09T05:10:00;10.80;99.90
26063;DHT22;13837;48.562;12.108;2022-09-09T05:12:25;10.70;99.90
26063;DHT22;13837;48.562;12.108;2022-09-09T05:14:52;10.70;99.90
26063;DHT22;13837;48.562;12.108;2022-09-09T05:17:17;10.70;99.90
26063;DHT22;13837;48.562;12.108;2022-09-09T05:19:44;10.70;99.90
26063;DHT22;13837;48.562;12.108;2022-09-09T05:22:10;10.80;99.90
26063;DHT22;13837;48.562;12.108;2022-09-09T05:24:42;10.80;99.90
26063;DHT22;13837;48.562;12.108;2022-09-09T05:27:09;10.90;99.90
26063;DHT22;13837;48.562;12.108;2022-09-09T05:29:38;10.90;99.90
26063;DHT22;13837;48.562;12.108;2022-09-09T05:32:06;11.00;99.90
26063;DHT22;13837;48.562;12.108;2022-09-09T05:34:32;11.00;99.90
26063;DHT22;13837;48.562;12.108;2022-09-09T05:36:57;10.90;99.90
26063;DHT22;13837;48.562;12.108;2022-09-09T05:39:24;11.00;99.90
26063;DHT22;13837;48.562;12.108;2022-09-09T05:41:50;10.80;99.90
26063;DHT22;13837;48.562;12.108;2022-09-09T05:44:16;10.70;99.90
26063;DHT22;13837;48.562;12.108;2022-09-09T05:46:43;10.60;99.90
26063;DHT22;13837;48.562;12.108;2022-09-09T05:49:13;10.70;99.90
26063;DHT22;13837;48.562;12.108;2022-09-09T05:51:41;10.70;99.90
26063;DHT22;13837;48.562;12.108;2022-09-09T05:54:11;10.80;99.90
26063;DHT22;13837;48.562;12.108;2022-09-09T05:56:42;10.80;99.90
26063;DHT22;13837;48.562;12.108;2022-09-09T05:59:08;10.80;99.90
26063;DHT22;13837;48.562;12.108;2022-09-09T06:01:36;10.80;99.90
26063;DHT22;13837;48.562;12.108;2022-09-09T06:04:06;10.80;99.90
26063;DHT22;13837;48.562;12.108;2022-09-09T06:06:35;11.00;99.90
26063;DHT22;13837;48.562;12.108;2022-09-09T06:09:03;11.30;99.90
26063;DHT22;13837;48.562;12.108;2022-09-09T06:11:35;11.80;99.90
26063;DHT22;13837;48.562;12.108;2022-09-09T06:14:02;12.40;99.90
26063;DHT22;13837;48.562;12.108;2022-09-09T06:16:30;12.80;99.90
26063;DHT22;13837;48.562;12.108;2022-09-09T06:18:58;13.00;99.90
26063;DHT22;13837;48.562;12.108;2022-09-09T06:21:31;13.20;99.90
26063;DHT22;13837;48.562;12.108;2022-09-09T06:24:00;13.10;99.90
26063;DHT22;13837;48.562;12.108;2022-09-09T06:26:28;13.10;99.90
26063;DHT22;13837;48.562;12.108;2022-09-09T06:28:56;13.00;99.90
26063;DHT22;13837;48.562;12.108;2022-09-09T06:31:26;12.90;99.90
26063;DHT22;13837;48.562;12.108;2022-09-09T06:33:54;12.90;99.90
26063;DHT22;13837;48.562;12.108;2022-09-09T06:36:22;12.80;99.90
26063;DHT22;13837;48.562;12.108;2022-09-09T06:38:48;12.70;99.90
26063;DHT22;13837;48.562;12.108;2022-09-09T06:41:17;12.60;99.90
26063;DHT22;13837;48.562;12.108;2022-09-09T06:43:45;12.50;99.90
26063;DHT22;13837;48.562;12.108;2022-09-09T06:48:39;12.50;99.90
26063;DHT22;13837;48.562;12.108;2022-09-09T06:51:15;12.50;99.90
26063;DHT22;13837;48.562;12.108;2022-09-09T06:53:43;12.50;99.90
26063;DHT22;13837;48.562;12.108;2022-09-09T06:58:39;12.50;99.90
26063;DHT22;13837;48.562;12.108;2022-09-09T07:01:19;12.50;99.90
26063;DHT22;13837;48.562;12.108;2022-09-09T07:03:48;12.50;99.90
26063;DHT22;13837;48.562;12.108;2022-09-09T07:06:20;12.50;99.90
26063;DHT22;13837;48.562;12.108;2022-09-09T07:08:54;12.50;99.90
26063;DHT22;13837;48.562;12.108;2022-09-09T07:11:28;12.60;99.90
26063;DHT22;13837;48.562;12.108;2022-09-09T07:13:57;12.60;99.90
26063;DHT22;13837;48.562;12.108;2022-09-09T07:16:23;12.70;99.90
26063;DHT22;13837;48.562;12.108;2022-09-09T07:18:51;12.70;99.90
26063;DHT22;13837;48.562;12.108;2022-09-09T07:21:18;12.70;99.90
26063;DHT22;13837;48.562;12.108;2022-09-09T07:23:44;12.70;99.90
26063;DHT22;13837;48.562;12.108;2022-09-09T07:26:13;12.80;99.90
26063;DHT22;13837;48.562;12.108;2022-09-09T07:28:39;12.80;99.90
26063;DHT22;13837;48.562;12.108;2022-09-09T07:31:08;12.80;99.90
26063;DHT22;13837;48.562;12.108;2022-09-09T07:33:39;12.80;99.90
26063;DHT22;13837;48.562;12.108;2022-09-09T07:36:18;12.80;99.90
26063;DHT22;13837;48.562;12.108;2022-09-09T07:38:45;12.80;99.90
26063;DHT22;13837;48.562;12.108;2022-09-09T07:41:16;12.50;99.90
26063;DHT22;13837;48.562;12.108;2022-09-09T07:43:45;12.50;99.90
26063;DHT22;13837;48.562;12.108;2022-09-09T07:46:13;12.60;99.90
26063;DHT22;13837;48.562;12.108;2022-09-09T07:48:44;12.60;99.90
26063;DHT22;13837;48.562;12.108;2022-09-09T07:51:16;12.70;99.90
26063;DHT22;13837;48.562;12.108;2022-09-09T07:53:46;12.80;99.90
26063;DHT22;13837;48.562;12.108;2022-09-09T07:56:15;12.90;99.90
26063;DHT22;13837;48.562;12.108;2022-09-09T07:58:45;13.00;99.90
26063;DHT22;13837;48.562;12.108;2022-09-09T08:01:15;13.10;99.90
26063;DHT22;13837;48.562;12.108;2022-09-09T08:03:44;13.20;99.90
26063;DHT22;13837;48.562;12.108;2022-09-09T08:06:11;13.30;99.90
26063;DHT22;13837;48.562;12.108;2022-09-09T08:08:39;13.40;99.90
26063;DHT22;13837;48.562;12.108;2022-09-09T08:11:12;13.50;99.90
26063;DHT22;13837;48.562;12.108;2022-09-09T08:13:39;13.70;99.90
26063;DHT22;13837;48.562;12.108;2022-09-09T08:16:11;13.80;99.90
26063;DHT22;13837;48.562;12.108;2022-09-09T08:18:38;13.90;99.90
26063;DHT22;13837;48.562;12.108;2022-09-09T08:21:30;13.90;99.90
26063;DHT22;13837;48.562;12.108;2022-09-09T08:23:57;13.90;99.90
26063;DHT22;13837;48.562;12.108;2022-09-09T08:26:26;14.00;99.90
26063;DHT22;13837;48.562;12.108;2022-09-09T08:28:55;14.00;99.90
26063;DHT22;13837;48.562;12.108;2022-09-09T08:31:36;14.00;99.90
26063;DHT22;13837;48.562;12.108;2022-09-09T08:34:06;14.10;99.90
26063;DHT22;13837;48.562;12.108;2022-09-09T08:36:35;14.10;99.90
26063;DHT22;13837;48.562;12.108;2022-09-09T08:39:04;14.10;99.90
26063;DHT22;13837;48.562;12.108;2022-09-09T08:47:54;14.10;99.90
26063;DHT22;13837;48.562;12.108;2022-09-09T08:50:36;14.10;99.90
26063;DHT22;13837;48.562;12.108;2022-09-09T08:53:17;14.10;99.90
26063;DHT22;13837;48.562;12.108;2022-09-09T08:55:52;14.20;99.90
26063;DHT22;13837;48.562;12.108;2022-09-09T08:58:27;14.20;99.90
26063;DHT22;13837;48.562;12.108;2022-09-09T09:04:03;14.20;99.90
26063;DHT22;13837;48.562;12.108;2022-09-09T09:12:37;14.30;99.90
26063;DHT22;13837;48.562;12.108;2022-09-09T09:15:19;14.30;99.90
26063;DHT22;13837;48.562;12.108;2022-09-09T09:17:47;14.30;99.90
26063;DHT22;13837;48.562;12.108;2022-09-09T09:20:16;14.40;99.90
26063;DHT22;13837;48.562;12.108;2022-09-09T09:22:51;14.40;99.90
26063;DHT22;13837;48.562;12.108;2022-09-09T09:25:27;14.50;99.90
26063;DHT22;13837;48.562;12.108;2022-09-09T09:28:17;14.50;99.90
26063;DHT22;13837;48.562;12.108;2022-09-09T09:30:54;14.50;99.90
26063;DHT22;13837;48.562;12.108;2022-09-09T09:33:52;14.50;99.90
26063;DHT22;13837;48.562;12.108;2022-09-09T09:36:25;14.60;99.90
26063;DHT22;13837;48.562;12.108;2022-09-09T09:38:59;14.60;99.90
26063;DHT22;13837;48.562;12.108;2022-09-09T09:43:58;14.70;99.90
26063;DHT22;13837;48.562;12.108;2022-09-09T09:46:27;14.80;99.90
26063;DHT22;13837;48.562;12.108;2022-09-09T09:49:00;14.70;99.90
26063;DHT22;13837;48.562;12.108;2022-09-09T09:51:29;14.70;99.90
26063;DHT22;13837;48.562;12.108;2022-09-09T09:56:36;14.70;99.90
26063;DHT22;13837;48.562;12.108;2022-09-09T09:59:04;14.70;99.90
26063;DHT22;13837;48.562;12.108;2022-09-09T10:01:35;14.80;99.90
26063;DHT22;13837;48.562;12.108;2022-09-09T10:04:17;14.80;99.90
26063;DHT22;13837;48.562;12.108;2022-09-09T10:06:44;14.90;99.90
26063;DHT22;13837;48.562;12.108;2022-09-09T10:09:27;15.00;99.90
26063;DHT22;13837;48.562;12.108;2022-09-09T10:23:38;15.30;99.90
26063;DHT22;13837;48.562;12.108;2022-09-09T10:29:36;15.30;99.90
26063;DHT22;13837;48.562;12.108;2022-09-09T10:37:24;15.40;99.90
26063;DHT22;13837;48.562;12.108;2022-09-09T10:40:06;15.50;99.90
26063;DHT22;13837;48.562;12.108;2022-09-09T10:42:37;15.50;99.90
26063;DHT22;13837;48.562;12.108;2022-09-09T10:51:40;15.70;99.90
26063;DHT22;13837;48.562;12.108;2022-09-09T10:53:58;15.70;99.90
26063;DHT22;13837;48.562;12.108;2022-09-09T10:56:30;15.70;99.90
26063;DHT22;13837;48.562;12.108;2022-09-09T10:59:20;15.70;99.90
26063;DHT22;13837;48.562;12.108;2022-09-09T11:04:55;16.00;99.90
26063;DHT22;13837;48.562;12.108;2022-09-09T11:10:36;16.10;99.90
26063;DHT22;13837;48.562;12.108;2022-09-09T11:13:14;16.20;99.90
26063;DHT22;13837;48.562;12.108;2022-09-09T11:15:51;16.20;99.90
26063;DHT22;13837;48.562;12.108;2022-09-09T11:18:21;16.20;99.90
26063;DHT22;13837;48.562;12.108;2022-09-09T11:20:51;16.40;99.90
26063;DHT22;13837;48.562;12.108;2022-09-09T11:25:56;16.50;99.90
26063;DHT22;13837;48.562;12.108;2022-09-09T11:31:44;16.80;99.90
26063;DHT22;13837;48.562;12.108;2022-09-09T11:34:42;16.90;99.90
26063;DHT22;13837;48.562;12.108;2022-09-09T11:40:29;17.40;99.90
26063;DHT22;13837;48.562;12.108;2022-09-09T11:43:09;17.50;99.90
26063;DHT22;13837;48.562;12.108;2022-09-09T11:45:40;17.50;99.90
26063;DHT22;13837;48.562;12.108;2022-09-09T11:53:49;17.70;99.90
26063;DHT22;13837;48.562;12.108;2022-09-09T11:58:56;17.80;99.90
26063;DHT22;13837;48.562;12.108;2022-09-09T12:01:36;17.90;99.90
26063;DHT22;13837;48.562;12.108;2022-09-09T12:04:13;18.20;99.90
26063;DHT22;13837;48.562;12.108;2022-09-09T12:06:50;18.50;99.90
26063;DHT22;13837;48.562;12.108;2022-09-09T12:14:43;18.80;99.90
26063;DHT22;13837;48.562;12.108;2022-09-09T12:17:30;19.00;99.90
26063;DHT22;13837;48.562;12.108;2022-09-09T12:20:03;18.90;99.90
26063;DHT22;13837;48.562;12.108;2022-09-09T12:22:41;19.00;99.90
26063;DHT22;13837;48.562;12.108;2022-09-09T12:25:26;19.10;99.90
26063;DHT22;13837;48.562;12.108;2022-09-09T12:31:08;19.40;99.90
26063;DHT22;13837;48.562;12.108;2022-09-09T12:33:37;19.30;99.90
26063;DHT22;13837;48.562;12.108;2022-09-09T12:36:12;19.20;99.90
26063;DHT22;13837;48.562;12.108;2022-09-09T12:38:41;19.40;99.90
26063;DHT22;13837;48.562;12.108;2022-09-09T12:41:24;19.60;99.90
26063;DHT22;13837;48.562;12.108;2022-09-09T12:43:51;20.40;99.90
26063;DHT22;13837;48.562;12.108;2022-09-09T12:46:41;20.80;99.90
26063;DHT22;13837;48.562;12.108;2022-09-09T12:51:54;21.40;99.90
26063;DHT22;13837;48.562;12.108;2022-09-09T12:54:23;21.60;99.90
26063;DHT22;13837;48.562;12.108;2022-09-09T12:56:49;20.80;99.90
26063;DHT22;13837;48.562;12.108;2022-09-09T12:59:26;20.60;99.90
26063;DHT22;13837;48.562;12.108;2022-09-09T13:01:59;20.50;99.90
26063;DHT22;13837;48.562;12.108;2022-09-09T13:04:25;20.50;99.90
26063;DHT22;13837;48.562;12.108;2022-09-09T13:06:50;20.50;99.90
26063;DHT22;13837;48.562;12.108;2022-09-09T13:09:18;20.60;99.90
26063;DHT22;13837;48.562;12.108;2022-09-09T13:11:50;20.90;99.90
26063;DHT22;13837;48.562;12.108;2022-09-09T13:14:38;20.90;99.90
26063;DHT22;13837;48.562;12.108;2022-09-09T13:17:05;20.70;99.90
26063;DHT22;13837;48.562;12.108;2022-09-09T13:19:38;20.70;99.90
26063;DHT22;13837;48.562;12.108;2022-09-09T13:24:46;21.00;99.90
26063;DHT22;13837;48.562;12.108;2022-09-09T13:27:39;21.20;99.90
26063;DHT22;13837;48.562;12.108;2022-09-09T13:35:56;21.30;99.90
26063;DHT22;13837;48.562;12.108;2022-09-09T13:38:22;21.60;99.90
26063;DHT22;13837;48.562;12.108;2022-09-09T13:41:05;21.80;99.90
26063;DHT22;13837;48.562;12.108;2022-09-09T13:43:37;21.70;99.90
26063;DHT22;13837;48.562;12.108;2022-09-09T13:46:20;21.30;99.90
26063;DHT22;13837;48.562;12.108;2022-09-09T13:48:58;21.00;99.90
26063;DHT22;13837;48.562;12.108;2022-09-09T13:51:40;21.00;99.90
26063;DHT22;13837;48.562;12.108;2022-09-09T13:54:11;20.70;99.90
26063;DHT22;13837;48.562;12.108;2022-09-09T13:56:40;20.60;99.90
26063;DHT22;13837;48.562;12.108;2022-09-09T13:59:10;20.50;99.90
26063;DHT22;13837;48.562;12.108;2022-09-09T14:01:36;20.50;99.90
26063;DHT22;13837;48.562;12.108;2022-09-09T14:04:03;20.30;99.90
26063;DHT22;13837;48.562;12.108;2022-09-09T14:06:30;19.90;99.90
26063;DHT22;13837;48.562;12.108;2022-09-09T14:08:58;19.90;99.90
26063;DHT22;13837;48.562;12.108;2022-09-09T14:11:24;20.10;99.90
26063;DHT22;13837;48.562;12.108;2022-09-09T14:13:50;20.20;99.90
26063;DHT22;13837;48.562;12.108;2022-09-09T14:16:18;20.10;99.90
26063;DHT22;13837;48.562;12.108;2022-09-09T14:18:45;20.20;99.90
26063;DHT22;13837;48.562;12.108;2022-09-09T14:21:12;20.30;99.90
26063;DHT22;13837;48.562;12.108;2022-09-09T14:23:44;20.40;99.90
26063;DHT22;13837;48.562;12.108;2022-09-09T14:26:10;20.30;99.90
26063;DHT22;13837;48.562;12.108;2022-09-09T14:28:36;20.30;99.90
26063;DHT22;13837;48.562;12.108;2022-09-09T14:31:03;20.30;99.90
26063;DHT22;13837;48.562;12.108;2022-09-09T14:33:29;20.50;99.90
26063;DHT22;13837;48.562;12.108;2022-09-09T14:36:03;20.70;99.90
26063;DHT22;13837;48.562;12.108;2022-09-09T14:38:30;21.00;99.90
26063;DHT22;13837;48.562;12.108;2022-09-09T14:40:56;21.10;99.90
26063;DHT22;13837;48.562;12.108;2022-09-09T14:43:24;20.90;99.90
26063;DHT22;13837;48.562;12.108;2022-09-09T14:45:49;20.80;99.90
26063;DHT22;13837;48.562;12.108;2022-09-09T14:48:17;20.80;99.90
26063;DHT22;13837;48.562;12.108;2022-09-09T14:50:43;20.50;99.90
26063;DHT22;13837;48.562;12.108;2022-09-09T14:53:09;20.30;99.90
26063;DHT22;13837;48.562;12.108;2022-09-09T14:55:36;20.20;99.90
26063;DHT22;13837;48.562;12.108;2022-09-09T14:58:04;19.90;99.90
26063;DHT22;13837;48.562;12.108;2022-09-09T15:00:31;19.90;99.90
26063;DHT22;13837;48.562;12.108;2022-09-09T15:02:57;19.70;99.90
26063;DHT22;13837;48.562;12.108;2022-09-09T15:05:23;19.50;99.90
26063;DHT22;13837;48.562;12.108;2022-09-09T15:07:49;19.50;99.90
26063;DHT22;13837;48.562;12.108;2022-09-09T15:10:15;19.30;99.90
26063;DHT22;13837;48.562;12.108;2022-09-09T15:12:43;19.40;99.90
26063;DHT22;13837;48.562;12.108;2022-09-09T15:15:09;19.40;99.90
26063;DHT22;13837;48.562;12.108;2022-09-09T15:17:35;19.30;99.90
26063;DHT22;13837;48.562;12.108;2022-09-09T15:20:03;19.30;99.90
26063;DHT22;13837;48.562;12.108;2022-09-09T15:22:28;19.30;99.90
26063;DHT22;13837;48.562;12.108;2022-09-09T15:24:54;19.20;99.90
26063;DHT22;13837;48.562;12.108;2022-09-09T15:27:20;19.20;99.90
26063;DHT22;13837;48.562;12.108;2022-09-09T15:29:46;19.00;99.90
26063;DHT22;13837;48.562;12.108;2022-09-09T15:32:12;19.00;99.90
26063;DHT22;13837;48.562;12.108;2022-09-09T15:34:37;19.00;99.90
26063;DHT22;13837;48.562;12.108;2022-09-09T15:37:04;18.80;99.90
26063;DHT22;13837;48.562;12.108;2022-09-09T15:39:32;18.70;99.90
26063;DHT22;13837;48.562;12.108;2022-09-09T15:41:57;18.70;99.90
26063;DHT22;13837;48.562;12.108;2022-09-09T15:44:23;18.70;99.90
26063;DHT22;13837;48.562;12.108;2022-09-09T15:46:52;18.60;99.90
26063;DHT22;13837;48.562;12.108;2022-09-09T15:49:23;18.60;99.90
26063;DHT22;13837;48.562;12.108;2022-09-09T15:51:52;18.70;99.90
26063;DHT22;13837;48.562;12.108;2022-09-09T15:54:19;18.40;99.90
26063;DHT22;13837;48.562;12.108;2022-09-09T15:56:51;18.20;99.90
26063;DHT22;13837;48.562;12.108;2022-09-09T15:59:17;18.30;99.90
26063;DHT22;13837;48.562;12.108;2022-09-09T16:01:42;18.10;99.90
26063;DHT22;13837;48.562;12.108;2022-09-09T16:04:09;18.10;99.90
26063;DHT22;13837;48.562;12.108;2022-09-09T16:06:35;18.10;99.90
26063;DHT22;13837;48.562;12.108;2022-09-09T16:09:03;18.00;99.90
26063;DHT22;13837;48.562;12.108;2022-09-09T16:11:31;18.00;99.90
26063;DHT22;13837;48.562;12.108;2022-09-09T16:13:59;17.90;99.90
26063;DHT22;13837;48.562;12.108;2022-09-09T16:16:28;17.90;99.90
26063;DHT22;13837;48.562;12.108;2022-09-09T16:18:59;18.00;99.90
26063;DHT22;13837;48.562;12.108;2022-09-09T16:21:30;17.90;99.90
26063;DHT22;13837;48.562;12.108;2022-09-09T16:23:58;17.80;99.90
26063;DHT22;13837;48.562;12.108;2022-09-09T16:26:32;17.80;99.90
26063;DHT22;13837;48.562;12.108;2022-09-09T16:28:58;17.80;99.90
26063;DHT22;13837;48.562;12.108;2022-09-09T16:31:25;17.90;99.90
26063;DHT22;13837;48.562;12.108;2022-09-09T16:33:52;17.90;99.90
26063;DHT22;13837;48.562;12.108;2022-09-09T16:36:20;18.00;99.90
26063;DHT22;13837;48.562;12.108;2022-09-09T16:38:46;18.00;99.90
26063;DHT22;13837;48.562;12.108;2022-09-09T16:41:13;18.00;99.90
26063;DHT22;13837;48.562;12.108;2022-09-09T16:43:40;18.00;99.90
26063;DHT22;13837;48.562;12.108;2022-09-09T16:46:15;18.10;99.90
26063;DHT22;13837;48.562;12.108;2022-09-09T16:48:42;18.20;99.90
26063;DHT22;13837;48.562;12.108;2022-09-09T16:51:13;18.20;99.90
26063;DHT22;13837;48.562;12.108;2022-09-09T16:53:40;18.00;99.90
26063;DHT22;13837;48.562;12.108;2022-09-09T16:56:10;18.00;99.90
26063;DHT22;13837;48.562;12.108;2022-09-09T16:58:35;18.10;99.90
26063;DHT22;13837;48.562;12.108;2022-09-09T17:01:03;18.10;99.90
26063;DHT22;13837;48.562;12.108;2022-09-09T17:03:29;18.20;99.90
26063;DHT22;13837;48.562;12.108;2022-09-09T17:05:55;18.10;99.90
26063;DHT22;13837;48.562;12.108;2022-09-09T17:08:24;18.00;99.90
26063;DHT22;13837;48.562;12.108;2022-09-09T17:10:49;18.00;99.90
26063;DHT22;13837;48.562;12.108;2022-09-09T17:13:15;17.80;99.90
26063;DHT22;13837;48.562;12.108;2022-09-09T17:15:45;17.80;99.90
26063;DHT22;13837;48.562;12.108;2022-09-09T17:18:12;17.70;99.90
26063;DHT22;13837;48.562;12.108;2022-09-09T17:20:39;17.60;99.90
26063;DHT22;13837;48.562;12.108;2022-09-09T17:23:06;17.60;99.90
26063;DHT22;13837;48.562;12.108;2022-09-09T17:25:31;17.60;99.90
26063;DHT22;13837;48.562;12.108;2022-09-09T17:27:58;17.50;99.90
26063;DHT22;13837;48.562;12.108;2022-09-09T17:30:25;17.50;99.90
26063;DHT22;13837;48.562;12.108;2022-09-09T17:32:51;17.60;99.90
26063;DHT22;13837;48.562;12.108;2022-09-09T17:35:17;17.60;99.90
26063;DHT22;13837;48.562;12.108;2022-09-09T17:37:43;17.60;99.90
26063;DHT22;13837;48.562;12.108;2022-09-09T17:40:10;17.60;99.90
26063;DHT22;13837;48.562;12.108;2022-09-09T17:42:36;17.40;99.90
26063;DHT22;13837;48.562;12.108;2022-09-09T17:45:03;17.30;99.90
26063;DHT22;13837;48.562;12.108;2022-09-09T17:47:28;17.20;99.90